Waynesville, Missouri
Current Conditions -  °F | °C
As of 5:58 AM on Saturday 01 Nov 2014 (Local Time) from KTBN Reporting Station
Clear Clear  
Wind Chill: 22°   Ceiling: Unl
Heat Index: 22°   Visibility: 10mi
Dew Point: 20°   Wind: 2mph
Humidity: 94%   Direction: 250°WSW
Pressure: 30.43"   Gusts: NA
Location:  37.83°N, 92.2°W
Report Text: KTBN 011058Z AUTO 25002KT 10SM CLR M06/M06 A3043 RMK AO2 SLP319 T10571065
Loading
Personal Weather Stations






























Interactive Weather Map
Tropical Storm Tracking
New forecast layout! Learn more

10-Day Weather Forecast

Advertisements
Track Severe Weather on mobile